logo
Search for airport 
image banner adimage banner adimage banner ad
image banner ad

LSXN - Haltikon

Located in , Switzerland

ICAO - , IATA -

Data provided by Airmate  

General information

Coordinates: N47°5'25" E8°24'53"
Elevation is 1771 feet MSL.
Magnetic variation is 2.088° East
View others Airports in Lucerne

Operational data

Special qualification required
Current time UTC:
Current local time:
Weather at : LSME - Emmen ( 8 km )
METAR: LSME 152050Z AUTO 27016KT 230V320 9999NDV BKN057 BKN200 14/03 Q1011 RMK
View NOTAMs / SUP AIP / TFR affecting this airport [VIEW]
Communications frequencies: [VIEW]

Runways:

Airport contact information

Address: Switzerland

Satellite view of LSXN